Time,TemperatureF,DewpointF,PressureIn,WindDirection,WindDirectionDegrees,WindSpeedMPH,WindSpeedGustMPH,Humidity,HourlyPrecipIn,Conditions,Clouds,dailyrainin,SoftwareType,DateUTC
2014-01-18 00:01:00,33.6,32.7,0.00,SSW,200,1.2,2.4,96,0.00,,,0.00,WUHU216CR1000,2014-01-18 08:01:00,
2014-01-18 00:06:00,33.6,32.7,0.00,SSW,200,1.2,2.4,96,0.00,,,0.00,WUHU216CR1000,2014-01-18 08:06:00,
2014-01-18 00:11:00,33.6,32.7,0.00,SSW,200,1.2,2.4,96,0.00,,,0.00,WUHU216CR1000,2014-01-18 08:11:00,
2014-01-18 00:16:00,34.1,33.2,0.00,NNE,30,0.6,2.4,96,0.00,,,0.00,WUHU216CR1000,2014-01-18 08:16:00,
2014-01-18 00:21:00,34.1,33.2,0.00,NNE,30,0.6,2.4,96,0.00,,,0.00,WUHU216CR1000,2014-01-18 08:21:00,
2014-01-18 00:26:00,34.1,33.2,0.00,NNE,30,0.6,2.4,96,0.00,,,0.00,WUHU216CR1000,2014-01-18 08:26:00,
2014-01-18 00:31:00,34.0,33.2,0.00,SW,224,0.2,2.4,97,0.00,,,0.00,WUHU216CR1000,2014-01-18 08:31:00,
2014-01-18 00:36:00,34.0,33.2,0.00,SW,224,0.2,1.3,97,0.00,,,0.00,WUHU216CR1000,2014-01-18 08:36:00,
2014-01-18 00:41:00,34.0,33.2,0.00,SW,224,0.2,1.3,97,0.00,,,0.00,WUHU216CR1000,2014-01-18 08:41:00,
2014-01-18 00:46:00,34.0,33.2,0.00,West,259,0.8,1.5,97,0.00,,,0.00,WUHU216CR1000,2014-01-18 08:46:00,
2014-01-18 00:51:00,34.0,33.2,0.00,West,259,0.8,1.5,97,0.00,,,0.00,WUHU216CR1000,2014-01-18 08:51:00,
2014-01-18 00:56:00,34.0,33.2,0.00,West,259,0.8,1.5,97,0.00,,,0.00,WUHU216CR1000,2014-01-18 08:56:00,
2014-01-18 01:01:00,33.4,32.6,0.00,NNW,327,0.4,1.5,97,0.00,,,0.00,WUHU216CR1000,2014-01-18 09:01:00,
2014-01-18 01:06:00,33.4,32.6,0.00,NNW,327,0.4,1.3,97,0.00,,,0.00,WUHU216CR1000,2014-01-18 09:06:00,
2014-01-18 01:11:00,33.4,32.6,0.00,NNW,327,0.4,1.3,97,0.00,,,0.00,WUHU216CR1000,2014-01-18 09:11:00,
2014-01-18 01:16:00,33.1,32.3,0.00,East,100,0.3,1.8,97,0.00,,,0.00,WUHU216CR1000,2014-01-18 09:16:00,
2014-01-18 01:21:00,33.1,32.3,0.00,East,100,0.3,1.8,97,0.00,,,0.00,WUHU216CR1000,2014-01-18 09:21:00,
2014-01-18 01:26:00,33.1,32.3,0.00,East,100,0.3,1.8,97,0.00,,,0.00,WUHU216CR1000,2014-01-18 09:26:00,
2014-01-18 01:31:00,33.2,32.5,0.00,NE,44,0.3,1.8,97,0.00,,,0.00,WUHU216CR1000,2014-01-18 09:31:00,
2014-01-18 01:36:00,33.2,32.5,0.00,NE,44,0.3,1.3,97,0.00,,,0.00,WUHU216CR1000,2014-01-18 09:36:00,
2014-01-18 01:41:00,33.2,32.5,0.00,NE,44,0.3,1.3,97,0.00,,,0.00,WUHU216CR1000,2014-01-18 09:41:00,
2014-01-18 01:46:00,32.0,31.3,0.00,NE,41,0.6,1.3,97,0.00,,,0.00,WUHU216CR1000,2014-01-18 09:46:00,
2014-01-18 01:51:00,32.0,31.3,0.00,NE,41,0.6,1.3,97,0.00,,,0.00,WUHU216CR1000,2014-01-18 09:51:00,
2014-01-18 01:56:00,32.0,31.3,0.00,NE,41,0.6,1.3,97,0.00,,,0.00,WUHU216CR1000,2014-01-18 09:56:00,
2014-01-18 02:01:00,32.5,31.9,0.00,West,278,0.5,1.5,97,0.00,,,0.00,WUHU216CR1000,2014-01-18 10:01:00,
2014-01-18 02:06:00,32.5,31.9,0.00,West,278,0.5,1.5,97,0.00,,,0.00,WUHU216CR1000,2014-01-18 10:06:00,
2014-01-18 02:11:00,32.5,31.9,0.00,West,278,0.5,1.5,97,0.00,,,0.00,WUHU216CR1000,2014-01-18 10:11:00,
2014-01-18 02:16:00,32.1,31.4,0.00,SSW,197,1.0,2.0,97,0.00,,,0.00,WUHU216CR1000,2014-01-18 10:16:00,
2014-01-18 02:21:00,32.1,31.4,0.00,SSW,197,1.0,2.0,97,0.00,,,0.00,WUHU216CR1000,2014-01-18 10:21:00,
2014-01-18 02:26:00,32.1,31.4,0.00,SSW,197,1.0,2.0,97,0.00,,,0.00,WUHU216CR1000,2014-01-18 10:26:00,
2014-01-18 02:31:00,31.2,30.5,0.00,SW,222,1.3,3.3,97,0.00,,,0.00,WUHU216CR1000,2014-01-18 10:31:00,
2014-01-18 02:36:00,31.2,30.5,0.00,SW,222,1.3,3.3,97,0.00,,,0.00,WUHU216CR1000,2014-01-18 10:36:00,
2014-01-18 02:41:00,31.2,30.5,0.00,SW,222,1.3,3.3,97,0.00,,,0.00,WUHU216CR1000,2014-01-18 10:41:00,
2014-01-18 02:47:00,30.8,30.1,0.00,NNE,21,1.5,3.3,97,0.00,,,0.00,WUHU216CR1000,2014-01-18 10:47:00,
2014-01-18 02:52:00,30.8,30.1,0.00,NNE,21,1.5,2.4,97,0.00,,,0.00,WUHU216CR1000,2014-01-18 10:52:00,
2014-01-18 02:57:00,30.8,30.1,0.00,NNE,21,1.5,2.4,97,0.00,,,0.00,WUHU216CR1000,2014-01-18 10:57:00,
2014-01-18 03:02:00,30.6,30.0,0.00,SSW,211,1.2,3.3,97,0.00,,,0.00,WUHU216CR1000,2014-01-18 11:02:00,
2014-01-18 03:07:00,30.6,30.0,0.00,SSW,211,1.2,3.3,97,0.00,,,0.00,WUHU216CR1000,2014-01-18 11:07:00,
2014-01-18 03:12:00,30.6,30.0,0.00,SSW,211,1.2,3.3,97,0.00,,,0.00,WUHU216CR1000,2014-01-18 11:12:00,
2014-01-18 03:17:00,31.1,30.5,0.00,NNE,14,0.3,3.3,97,0.00,,,0.00,WUHU216CR1000,2014-01-18 11:17:00,
2014-01-18 03:22:00,31.1,30.5,0.00,NNE,14,0.3,1.5,97,0.00,,,0.00,WUHU216CR1000,2014-01-18 11:22:00,
2014-01-18 03:27:00,31.1,30.5,0.00,NNE,14,0.3,1.5,97,0.00,,,0.00,WUHU216CR1000,2014-01-18 11:27:00,
2014-01-18 03:32:00,31.5,30.8,0.00,North,5,0.3,1.5,97,0.00,,,0.00,WUHU216CR1000,2014-01-18 11:32:00,
2014-01-18 03:37:00,31.5,30.8,0.00,North,5,0.3,0.9,97,0.00,,,0.00,WUHU216CR1000,2014-01-18 11:37:00,
2014-01-18 03:42:00,31.5,30.8,0.00,North,5,0.3,0.9,97,0.00,,,0.00,WUHU216CR1000,2014-01-18 11:42:00,
2014-01-18 03:47:00,30.6,29.9,0.00,WSW,247,0.3,1.3,97,0.00,,,0.00,WUHU216CR1000,2014-01-18 11:47:00,
2014-01-18 03:52:00,30.6,29.9,0.00,WSW,247,0.3,1.3,97,0.00,,,0.00,WUHU216CR1000,2014-01-18 11:52:00,
2014-01-18 03:57:00,30.6,29.9,0.00,WSW,247,0.3,1.3,97,0.00,,,0.00,WUHU216CR1000,2014-01-18 11:57:00,
2014-01-18 04:02:00,30.4,29.7,0.00,SSW,211,0.3,2.0,97,0.00,,,0.00,WUHU216CR1000,2014-01-18 12:02:00,
2014-01-18 04:07:00,30.4,29.7,0.00,SSW,211,0.3,2.0,97,0.00,,,0.00,WUHU216CR1000,2014-01-18 12:07:00,
2014-01-18 04:12:00,30.4,29.7,0.00,SSW,211,0.3,2.0,97,0.00,,,0.00,WUHU216CR1000,2014-01-18 12:12:00,
2014-01-18 04:17:00,30.1,29.4,0.00,North,1,0.0,2.0,97,0.00,,,0.00,WUHU216CR1000,2014-01-18 12:17:00,
2014-01-18 04:22:00,30.1,29.4,0.00,North,1,0.0,1.5,97,0.00,,,0.00,WUHU216CR1000,2014-01-18 12:22:00,
2014-01-18 04:27:00,30.1,29.4,0.00,North,1,0.0,1.5,97,0.00,,,0.00,WUHU216CR1000,2014-01-18 12:27:00,
2014-01-18 04:32:00,30.1,29.4,0.00,North,2,0.6,1.8,97,0.00,,,0.00,WUHU216CR1000,2014-01-18 12:32:00,
2014-01-18 04:36:00,30.1,29.4,0.00,North,2,0.6,1.8,97,0.00,,,0.00,WUHU216CR1000,2014-01-18 12:36:00,
2014-01-18 04:41:00,30.1,29.4,0.00,North,2,0.6,1.8,97,0.00,,,0.00,WUHU216CR1000,2014-01-18 12:41:00,
2014-01-18 04:46:00,30.1,29.4,0.00,North,6,0.4,1.8,97,0.00,,,0.00,WUHU216CR1000,2014-01-18 12:46:00,
2014-01-18 04:51:00,30.1,29.4,0.00,North,6,0.4,1.8,97,0.00,,,0.00,WUHU216CR1000,2014-01-18 12:51:00,
2014-01-18 04:56:00,30.1,29.4,0.00,North,6,0.4,1.8,97,0.00,,,0.00,WUHU216CR1000,2014-01-18 12:56:00,
2014-01-18 05:01:00,29.7,29.0,0.00,SW,214,2.0,4.6,97,0.00,,,0.00,WUHU216CR1000,2014-01-18 13:01:00,
2014-01-18 05:06:00,29.7,29.0,0.00,SW,214,2.0,4.6,97,0.00,,,0.00,WUHU216CR1000,2014-01-18 13:06:00,
2014-01-18 05:11:00,29.7,29.0,0.00,SW,214,2.0,4.6,97,0.00,,,0.00,WUHU216CR1000,2014-01-18 13:11:00,
2014-01-18 05:16:00,29.3,28.6,0.00,NNE,24,2.0,4.6,97,0.00,,,0.00,WUHU216CR1000,2014-01-18 13:16:00,
2014-01-18 05:22:00,29.3,28.6,0.00,NNE,24,2.0,3.5,97,0.00,,,0.00,WUHU216CR1000,2014-01-18 13:22:00,
2014-01-18 05:27:00,29.3,28.6,0.00,NNE,24,2.0,3.5,97,0.00,,,0.00,WUHU216CR1000,2014-01-18 13:27:00,
2014-01-18 05:32:00,29.4,28.8,0.00,North,11,0.4,3.5,97,0.00,,,0.00,WUHU216CR1000,2014-01-18 13:32:00,
2014-01-18 05:37:00,29.4,28.8,0.00,North,11,0.4,2.0,97,0.00,,,0.00,WUHU216CR1000,2014-01-18 13:37:00,
2014-01-18 05:42:00,29.4,28.8,0.00,North,11,0.4,2.0,97,0.00,,,0.00,WUHU216CR1000,2014-01-18 13:42:00,
2014-01-18 05:47:00,29.8,29.1,0.00,NE,42,0.2,2.0,97,0.00,,,0.00,WUHU216CR1000,2014-01-18 13:47:00,
2014-01-18 05:52:00,29.8,29.1,0.00,NE,42,0.2,1.1,97,0.00,,,0.00,WUHU216CR1000,2014-01-18 13:52:00,
2014-01-18 05:57:00,29.8,29.1,0.00,NE,42,0.2,1.1,97,0.00,,,0.00,WUHU216CR1000,2014-01-18 13:57:00,
2014-01-18 06:02:00,29.3,28.6,0.00,NW,305,0.8,2.0,97,0.00,,,0.00,WUHU216CR1000,2014-01-18 14:02:00,
2014-01-18 06:07:00,29.3,28.6,0.00,NW,305,0.8,2.0,97,0.00,,,0.00,WUHU216CR1000,2014-01-18 14:07:00,
2014-01-18 06:12:00,29.3,28.6,0.00,NW,305,0.8,2.0,97,0.00,,,0.00,WUHU216CR1000,2014-01-18 14:12:00,
2014-01-18 06:17:00,28.7,28.0,0.00,SSW,211,0.1,2.0,97,0.00,,,0.00,WUHU216CR1000,2014-01-18 14:17:00,
2014-01-18 06:22:00,28.7,28.0,0.00,SSW,211,0.1,0.9,97,0.00,,,0.00,WUHU216CR1000,2014-01-18 14:22:00,
2014-01-18 06:27:00,28.7,28.0,0.00,SSW,211,0.1,0.9,97,0.00,,,0.00,WUHU216CR1000,2014-01-18 14:27:00,
2014-01-18 06:32:00,28.8,28.1,0.00,WSW,253,0.1,0.9,97,0.00,,,0.00,WUHU216CR1000,2014-01-18 14:32:00,
2014-01-18 06:37:00,28.8,28.1,0.00,WSW,253,0.1,0.9,97,0.00,,,0.00,WUHU216CR1000,2014-01-18 14:37:00,
2014-01-18 06:42:00,28.8,28.1,0.00,WSW,253,0.1,0.9,97,0.00,,,0.00,WUHU216CR1000,2014-01-18 14:42:00,
2014-01-18 06:47:00,28.3,27.6,0.00,West,281,0.2,2.2,97,0.00,,,0.00,WUHU216CR1000,2014-01-18 14:47:00,
2014-01-18 06:52:00,28.3,27.6,0.00,West,281,0.2,2.2,97,0.00,,,0.00,WUHU216CR1000,2014-01-18 14:52:00,
2014-01-18 06:57:00,28.3,27.6,0.00,West,281,0.2,2.2,97,0.00,,,0.00,WUHU216CR1000,2014-01-18 14:57:00,
2014-01-18 07:02:00,27.7,26.9,0.00,NNW,337,2.2,3.5,97,0.00,,,0.00,WUHU216CR1000,2014-01-18 15:02:00,
2014-01-18 07:07:00,27.7,26.9,0.00,NNW,337,2.2,3.5,97,0.00,,,0.00,WUHU216CR1000,2014-01-18 15:07:00,
2014-01-18 07:12:00,27.7,26.9,0.00,NNW,337,2.2,3.5,97,0.00,,,0.00,WUHU216CR1000,2014-01-18 15:12:00,
2014-01-18 07:17:00,28.4,27.7,0.00,WNW,297,1.1,3.5,97,0.00,,,0.00,WUHU216CR1000,2014-01-18 15:17:00,
2014-01-18 07:22:00,28.4,27.7,0.00,WNW,297,1.1,2.9,97,0.00,,,0.00,WUHU216CR1000,2014-01-18 15:22:00,
2014-01-18 07:27:00,28.4,27.7,0.00,WNW,297,1.1,2.9,97,0.00,,,0.00,WUHU216CR1000,2014-01-18 15:27:00,
2014-01-18 07:31:00,28.4,27.6,0.00,East,98,0.3,2.9,97,0.00,,,0.00,WUHU216CR1000,2014-01-18 15:31:00,
2014-01-18 07:37:00,28.4,27.6,0.00,East,98,0.3,1.8,97,0.00,,,0.00,WUHU216CR1000,2014-01-18 15:37:00,
2014-01-18 07:41:00,28.4,27.6,0.00,East,98,0.3,1.8,97,0.00,,,0.00,WUHU216CR1000,2014-01-18 15:41:00,
2014-01-18 07:46:00,28.8,28.0,0.00,WNW,296,0.6,2.2,97,0.00,,,0.00,WUHU216CR1000,2014-01-18 15:46:00,
2014-01-18 07:51:00,28.8,28.0,0.00,WNW,296,0.6,2.2,97,0.00,,,0.00,WUHU216CR1000,2014-01-18 15:51:00,
2014-01-18 07:56:00,28.8,28.0,0.00,WNW,296,0.6,2.2,97,0.00,,,0.00,WUHU216CR1000,2014-01-18 15:56:00,
2014-01-18 08:01:00,28.8,27.9,0.00,South,173,1.0,2.4,96,0.00,,,0.00,WUHU216CR1000,2014-01-18 16:01:00,
2014-01-18 08:06:00,28.8,27.9,0.00,South,173,1.0,2.4,96,0.00,,,0.00,WUHU216CR1000,2014-01-18 16:06:00,
2014-01-18 08:12:00,28.8,27.9,0.00,South,173,1.0,2.4,96,0.00,,,0.00,WUHU216CR1000,2014-01-18 16:12:00,
2014-01-18 08:17:00,31.2,30.0,0.00,SW,214,0.7,2.6,95,0.00,,,0.00,WUHU216CR1000,2014-01-18 16:17:00,
2014-01-18 08:22:00,31.2,30.0,0.00,SW,214,0.7,2.6,95,0.00,,,0.00,WUHU216CR1000,2014-01-18 16:22:00,
2014-01-18 08:27:00,31.2,30.0,0.00,SW,214,0.7,2.6,95,0.00,,,0.00,WUHU216CR1000,2014-01-18 16:27:00,
2014-01-18 08:32:00,32.7,31.1,0.00,ENE,59,1.3,2.6,94,0.00,,,0.00,WUHU216CR1000,2014-01-18 16:32:00,
2014-01-18 08:36:00,32.7,31.1,0.00,ENE,59,1.3,2.4,94,0.00,,,0.00,WUHU216CR1000,2014-01-18 16:36:00,
2014-01-18 08:41:00,32.7,31.1,0.00,ENE,59,1.3,2.4,94,0.00,,,0.00,WUHU216CR1000,2014-01-18 16:41:00,
2014-01-18 08:46:00,35.5,33.7,0.00,NNW,339,0.1,2.4,93,0.00,,,0.00,WUHU216CR1000,2014-01-18 16:46:00,
2014-01-18 08:51:00,35.5,33.7,0.00,NNW,339,0.1,1.3,93,0.00,,,0.00,WUHU216CR1000,2014-01-18 16:51:00,
2014-01-18 08:56:00,35.5,33.7,0.00,NNW,339,0.1,1.3,93,0.00,,,0.00,WUHU216CR1000,2014-01-18 16:56:00,
2014-01-18 09:01:00,37.7,35.2,0.00,SSW,212,1.3,3.1,91,0.00,,,0.00,WUHU216CR1000,2014-01-18 17:01:00,
2014-01-18 09:06:00,37.7,35.2,0.00,SSW,212,1.3,3.1,91,0.00,,,0.00,WUHU216CR1000,2014-01-18 17:06:00,
2014-01-18 09:11:00,37.7,35.2,0.00,SSW,212,1.3,3.1,91,0.00,,,0.00,WUHU216CR1000,2014-01-18 17:11:00,
2014-01-18 09:15:00,37.7,35.2,0.00,SSW,212,1.3,3.1,91,0.00,,,0.00,WUHU216CR1000,2014-01-18 17:15:00,
2014-01-18 09:20:00,39.1,35.8,0.00,SSE,167,1.5,3.1,88,0.00,,,0.00,WUHU216CR1000,2014-01-18 17:20:00,
2014-01-18 09:25:00,39.1,35.8,0.00,SSE,167,1.5,2.6,88,0.00,,,0.00,WUHU216CR1000,2014-01-18 17:25:00,
2014-01-18 09:30:00,39.1,35.8,0.00,SSE,167,1.5,2.6,88,0.00,,,0.00,WUHU216CR1000,2014-01-18 17:30:00,
2014-01-18 09:35:00,42.3,37.5,0.00,SSE,154,0.3,2.6,83,0.00,,,0.00,WUHU216CR1000,2014-01-18 17:35:00,
2014-01-18 09:40:00,42.3,37.5,0.00,SSE,154,0.3,1.8,83,0.00,,,0.00,WUHU216CR1000,2014-01-18 17:40:00,
2014-01-18 09:45:00,42.3,37.5,0.00,SSE,154,0.3,1.8,83,0.00,,,0.00,WUHU216CR1000,2014-01-18 17:45:00,
2014-01-18 09:50:00,45.4,37.6,0.00,SSW,211,0.8,2.6,74,0.00,,,0.00,WUHU216CR1000,2014-01-18 17:50:00,
2014-01-18 09:55:00,45.4,37.6,0.00,SSW,211,0.8,2.6,74,0.00,,,0.00,WUHU216CR1000,2014-01-18 17:55:00,
2014-01-18 10:00:00,45.4,37.6,0.00,SSW,211,0.8,2.6,74,0.00,,,0.00,WUHU216CR1000,2014-01-18 18:00:00,
2014-01-18 10:05:00,48.6,36.1,0.00,SSE,164,0.9,2.6,62,0.00,,,0.00,WUHU216CR1000,2014-01-18 18:05:00,
2014-01-18 10:10:00,48.6,36.1,0.00,SSE,164,0.9,2.2,62,0.00,,,0.00,WUHU216CR1000,2014-01-18 18:10:00,
2014-01-18 10:15:00,48.6,36.1,0.00,SSE,164,0.9,2.2,62,0.00,,,0.00,WUHU216CR1000,2014-01-18 18:15:00,
2014-01-18 10:20:00,51.6,34.3,0.00,SSE,148,0.9,2.9,52,0.00,,,0.00,WUHU216CR1000,2014-01-18 18:20:00,
2014-01-18 10:25:00,51.6,34.3,0.00,SSE,148,0.9,2.9,52,0.00,,,0.00,WUHU216CR1000,2014-01-18 18:25:00,
2014-01-18 10:30:00,51.6,34.3,0.00,SSE,148,0.9,2.9,52,0.00,,,0.00,WUHU216CR1000,2014-01-18 18:30:00,
2014-01-18 10:35:00,53.4,34.1,0.00,SE,134,1.3,3.7,48,0.00,,,0.00,WUHU216CR1000,2014-01-18 18:35:00,
2014-01-18 10:40:00,53.4,34.1,0.00,SE,134,1.3,3.7,48,0.00,,,0.00,WUHU216CR1000,2014-01-18 18:40:00,
2014-01-18 10:45:00,53.4,34.1,0.00,SE,134,1.3,3.7,48,0.00,,,0.00,WUHU216CR1000,2014-01-18 18:45:00,
2014-01-18 10:50:00,54.4,33.3,0.00,North,349,1.0,3.7,45,0.00,,,0.00,WUHU216CR1000,2014-01-18 18:50:00,
2014-01-18 10:55:00,54.4,33.3,0.00,North,349,1.0,3.3,45,0.00,,,0.00,WUHU216CR1000,2014-01-18 18:55:00,
2014-01-18 11:00:00,54.4,33.3,0.00,North,349,1.0,3.3,45,0.00,,,0.00,WUHU216CR1000,2014-01-18 19:00:00,
2014-01-18 11:05:00,57.2,33.5,0.00,NNE,31,0.8,3.3,41,0.00,,,0.00,WUHU216CR1000,2014-01-18 19:05:00,
2014-01-18 11:10:00,57.2,33.5,0.00,NNE,31,0.8,2.4,41,0.00,,,0.00,WUHU216CR1000,2014-01-18 19:10:00,
2014-01-18 11:15:00,57.2,33.5,0.00,NNE,31,0.8,2.4,41,0.00,,,0.00,WUHU216CR1000,2014-01-18 19:15:00,
2014-01-18 11:20:00,58.9,34.2,0.00,SW,234,1.2,3.5,39,0.00,,,0.00,WUHU216CR1000,2014-01-18 19:20:00,
2014-01-18 11:25:00,58.9,34.2,0.00,SW,234,1.2,3.5,39,0.00,,,0.00,WUHU216CR1000,2014-01-18 19:25:00,
2014-01-18 11:30:00,58.9,34.2,0.00,SW,234,1.2,3.5,39,0.00,,,0.00,WUHU216CR1000,2014-01-18 19:30:00,
2014-01-18 11:35:00,61.6,33.4,0.00,South,170,1.6,4.8,35,0.00,,,0.00,WUHU216CR1000,2014-01-18 19:35:00,
2014-01-18 11:40:00,61.6,33.4,0.00,South,170,1.6,4.8,35,0.00,,,0.00,WUHU216CR1000,2014-01-18 19:40:00,
2014-01-18 11:45:00,61.6,33.4,0.00,South,170,1.6,4.8,35,0.00,,,0.00,WUHU216CR1000,2014-01-18 19:45:00,
2014-01-18 11:50:00,62.2,31.8,0.00,SSE,159,1.6,4.8,32,0.00,,,0.00,WUHU216CR1000,2014-01-18 19:50:00,
2014-01-18 11:55:00,62.2,31.8,0.00,SSE,159,1.6,3.9,32,0.00,,,0.00,WUHU216CR1000,2014-01-18 19:55:00,
2014-01-18 12:00:00,62.2,31.8,0.00,SSE,159,1.6,3.9,32,0.00,,,0.00,WUHU216CR1000,2014-01-18 20:00:00,
2014-01-18 12:05:00,64.0,30.7,0.00,South,169,1.9,4.6,29,0.00,,,0.00,WUHU216CR1000,2014-01-18 20:05:00,
2014-01-18 12:10:00,64.0,30.7,0.00,South,169,1.9,4.6,29,0.00,,,0.00,WUHU216CR1000,2014-01-18 20:10:00,
2014-01-18 12:15:00,64.0,30.7,0.00,South,169,1.9,4.6,29,0.00,,,0.00,WUHU216CR1000,2014-01-18 20:15:00,
2014-01-18 12:20:00,65.3,30.1,0.00,SSE,159,1.6,4.6,27,0.00,,,0.00,WUHU216CR1000,2014-01-18 20:20:00,
2014-01-18 12:25:00,65.3,30.1,0.00,SSE,159,1.6,3.9,27,0.00,,,0.00,WUHU216CR1000,2014-01-18 20:25:00,
2014-01-18 12:30:00,65.3,30.1,0.00,SSE,159,1.6,3.9,27,0.00,,,0.00,WUHU216CR1000,2014-01-18 20:30:00,
2014-01-18 12:35:00,66.7,30.3,0.00,SSW,195,2.2,4.4,26,0.00,,,0.00,WUHU216CR1000,2014-01-18 20:35:00,
2014-01-18 12:40:00,66.7,30.3,0.00,SSW,195,2.2,4.4,26,0.00,,,0.00,WUHU216CR1000,2014-01-18 20:40:00,
2014-01-18 12:45:00,66.7,30.3,0.00,SSW,195,2.2,4.4,26,0.00,,,0.00,WUHU216CR1000,2014-01-18 20:45:00,
2014-01-18 12:50:00,67.9,29.9,0.00,South,180,2.1,4.8,24,0.00,,,0.00,WUHU216CR1000,2014-01-18 20:50:00,
2014-01-18 12:55:00,67.9,29.9,0.00,South,180,2.1,4.8,24,0.00,,,0.00,WUHU216CR1000,2014-01-18 20:55:00,
2014-01-18 13:00:00,67.9,29.9,0.00,South,180,2.1,4.8,24,0.00,,,0.00,WUHU216CR1000,2014-01-18 21:00:00,
2014-01-18 13:05:00,69.3,29.8,0.00,WSW,250,1.6,4.8,23,0.00,,,0.00,WUHU216CR1000,2014-01-18 21:05:00,
2014-01-18 13:10:00,69.3,29.8,0.00,WSW,250,1.6,4.6,23,0.00,,,0.00,WUHU216CR1000,2014-01-18 21:10:00,
2014-01-18 13:15:00,69.3,29.8,0.00,WSW,250,1.6,4.6,23,0.00,,,0.00,WUHU216CR1000,2014-01-18 21:15:00,
2014-01-18 13:20:00,69.3,29.1,0.00,NW,309,1.9,5.0,22,0.00,,,0.00,WUHU216CR1000,2014-01-18 21:20:00,
2014-01-18 13:25:00,69.3,29.1,0.00,NW,309,1.9,5.0,22,0.00,,,0.00,WUHU216CR1000,2014-01-18 21:25:00,
2014-01-18 13:29:00,69.3,29.1,0.00,NW,309,1.9,5.0,22,0.00,,,0.00,WUHU216CR1000,2014-01-18 21:29:00,
2014-01-18 13:34:00,70.6,29.1,0.00,South,176,2.4,5.5,21,0.00,,,0.00,WUHU216CR1000,2014-01-18 21:34:00,
2014-01-18 13:39:00,70.6,29.1,0.00,South,176,2.4,5.5,21,0.00,,,0.00,WUHU216CR1000,2014-01-18 21:39:00,
2014-01-18 13:44:00,70.6,29.1,0.00,South,176,2.4,5.5,21,0.00,,,0.00,WUHU216CR1000,2014-01-18 21:44:00,
2014-01-18 13:49:00,71.7,28.1,0.00,SSE,166,1.3,5.5,20,0.00,,,0.00,WUHU216CR1000,2014-01-18 21:49:00,
2014-01-18 13:54:00,71.7,28.1,0.00,SSE,166,1.3,3.7,20,0.00,,,0.00,WUHU216CR1000,2014-01-18 21:54:00,
2014-01-18 13:59:00,71.7,28.1,0.00,SSE,166,1.3,3.7,20,0.00,,,0.00,WUHU216CR1000,2014-01-18 21:59:00,
2014-01-18 14:04:00,72.3,28.2,0.00,South,181,1.4,3.7,19,0.00,,,0.00,WUHU216CR1000,2014-01-18 22:04:00,
2014-01-18 14:09:00,72.3,28.2,0.00,South,181,1.4,3.5,19,0.00,,,0.00,WUHU216CR1000,2014-01-18 22:09:00,
2014-01-18 14:15:00,72.3,28.2,0.00,South,181,1.4,3.5,19,0.00,,,0.00,WUHU216CR1000,2014-01-18 22:15:00,
2014-01-18 14:20:00,74.0,27.7,0.00,WSW,255,1.1,3.5,18,0.00,,,0.00,WUHU216CR1000,2014-01-18 22:20:00,
2014-01-18 14:25:00,74.0,27.7,0.00,WSW,255,1.1,3.1,18,0.00,,,0.00,WUHU216CR1000,2014-01-18 22:25:00,
2014-01-18 14:30:00,74.0,27.7,0.00,WSW,255,1.1,3.1,18,0.00,,,0.00,WUHU216CR1000,2014-01-18 22:30:00,
2014-01-18 14:35:00,74.6,27.0,0.00,SE,146,1.6,3.7,17,0.00,,,0.00,WUHU216CR1000,2014-01-18 22:35:00,
2014-01-18 14:40:00,74.6,27.0,0.00,SE,146,1.6,3.7,17,0.00,,,0.00,WUHU216CR1000,2014-01-18 22:40:00,
2014-01-18 14:45:00,74.6,27.0,0.00,SE,146,1.6,3.7,17,0.00,,,0.00,WUHU216CR1000,2014-01-18 22:45:00,
2014-01-18 14:50:00,75.0,26.2,0.00,SSE,161,1.8,4.2,16,0.00,,,0.00,WUHU216CR1000,2014-01-18 22:50:00,
2014-01-18 14:54:00,75.0,26.2,0.00,SSE,161,1.8,4.2,16,0.00,,,0.00,WUHU216CR1000,2014-01-18 22:54:00,
2014-01-18 15:00:00,75.0,26.2,0.00,SSE,161,1.8,4.2,16,0.00,,,0.00,WUHU216CR1000,2014-01-18 23:00:00,
2014-01-18 15:05:00,75.1,24.1,0.00,SE,144,1.9,4.2,15,0.00,,,0.00,WUHU216CR1000,2014-01-18 23:05:00,
2014-01-18 15:10:00,75.1,24.1,0.00,SE,144,1.9,4.2,15,0.00,,,0.00,WUHU216CR1000,2014-01-18 23:10:00,
2014-01-18 15:14:00,75.1,24.1,0.00,SE,144,1.9,4.2,15,0.00,,,0.00,WUHU216CR1000,2014-01-18 23:14:00,
2014-01-18 15:19:00,76.0,23.8,0.00,SSE,160,1.5,4.8,14,0.00,,,0.00,WUHU216CR1000,2014-01-18 23:19:00,
2014-01-18 15:25:00,76.0,23.8,0.00,SSE,160,1.5,4.8,14,0.00,,,0.00,WUHU216CR1000,2014-01-18 23:25:00,
2014-01-18 15:30:00,76.0,23.8,0.00,SSE,160,1.5,4.8,14,0.00,,,0.00,WUHU216CR1000,2014-01-18 23:30:00,
2014-01-18 15:35:00,76.2,23.7,0.00,SSE,162,1.6,4.8,14,0.00,,,0.00,WUHU216CR1000,2014-01-18 23:35:00,
2014-01-18 15:40:00,76.2,23.7,0.00,SSE,162,1.6,3.9,14,0.00,,,0.00,WUHU216CR1000,2014-01-18 23:40:00,
2014-01-18 15:45:00,76.2,23.7,0.00,SSE,162,1.6,3.9,14,0.00,,,0.00,WUHU216CR1000,2014-01-18 23:45:00,
2014-01-18 15:50:00,75.9,24.4,0.00,SE,139,2.0,4.2,15,0.00,,,0.00,WUHU216CR1000,2014-01-18 23:50:00,
2014-01-18 15:55:00,75.9,24.4,0.00,SE,139,2.0,4.2,15,0.00,,,0.00,WUHU216CR1000,2014-01-18 23:55:00,
2014-01-18 16:00:00,75.9,24.4,0.00,SE,139,2.0,4.2,15,0.00,,,0.00,WUHU216CR1000,2014-01-19 00:00:00,
2014-01-18 16:05:00,75.4,25.3,0.00,SE,142,1.9,4.2,16,0.00,,,0.00,WUHU216CR1000,2014-01-19 00:05:00,
2014-01-18 16:09:00,75.4,25.3,0.00,SE,142,1.9,4.2,16,0.00,,,0.00,WUHU216CR1000,2014-01-19 00:09:00,
2014-01-18 16:14:00,75.4,25.3,0.00,SE,142,1.9,4.2,16,0.00,,,0.00,WUHU216CR1000,2014-01-19 00:14:00,
2014-01-18 16:19:00,74.4,27.7,0.00,SSE,149,1.9,4.6,18,0.00,,,0.00,WUHU216CR1000,2014-01-19 00:19:00,
2014-01-18 16:24:00,74.4,27.7,0.00,SSE,149,1.9,4.6,18,0.00,,,0.00,WUHU216CR1000,2014-01-19 00:24:00,
2014-01-18 16:29:00,74.4,27.7,0.00,SSE,149,1.9,4.6,18,0.00,,,0.00,WUHU216CR1000,2014-01-19 00:29:00,
2014-01-18 16:34:00,71.3,33.0,0.00,SW,231,1.6,4.6,25,0.00,,,0.00,WUHU216CR1000,2014-01-19 00:34:00,
2014-01-18 16:39:00,71.3,33.0,0.00,SW,231,1.6,3.1,25,0.00,,,0.00,WUHU216CR1000,2014-01-19 00:39:00,
2014-01-18 16:44:00,71.3,33.0,0.00,SW,231,1.6,3.1,25,0.00,,,0.00,WUHU216CR1000,2014-01-19 00:44:00,
2014-01-18 16:49:00,66.3,33.9,0.00,SW,232,1.7,3.1,30,0.00,,,0.00,WUHU216CR1000,2014-01-19 00:49:00,
2014-01-18 16:54:00,66.3,33.9,0.00,SW,232,1.7,3.1,30,0.00,,,0.00,WUHU216CR1000,2014-01-19 00:54:00,
2014-01-18 16:59:00,66.3,33.9,0.00,SW,232,1.7,3.1,30,0.00,,,0.00,WUHU216CR1000,2014-01-19 00:59:00,
2014-01-18 17:04:00,60.6,33.8,0.00,SW,219,1.6,3.1,36,0.00,,,0.00,WUHU216CR1000,2014-01-19 01:04:00,
2014-01-18 17:09:00,60.6,33.8,0.00,SW,219,1.6,2.9,36,0.00,,,0.00,WUHU216CR1000,2014-01-19 01:09:00,
2014-01-18 17:14:00,60.6,33.8,0.00,SW,219,1.6,2.9,36,0.00,,,0.00,WUHU216CR1000,2014-01-19 01:14:00,
2014-01-18 17:19:00,55.6,34.7,0.00,SW,229,1.6,2.9,45,0.00,,,0.00,WUHU216CR1000,2014-01-19 01:19:00,
2014-01-18 17:24:00,55.6,34.7,0.00,SW,229,1.6,2.6,45,0.00,,,0.00,WUHU216CR1000,2014-01-19 01:24:00,
2014-01-18 17:29:00,55.6,34.7,0.00,SW,229,1.6,2.6,45,0.00,,,0.00,WUHU216CR1000,2014-01-19 01:29:00,
2014-01-18 17:34:00,52.9,35.7,0.00,SW,226,2.2,3.5,52,0.00,,,0.00,WUHU216CR1000,2014-01-19 01:34:00,
2014-01-18 17:39:00,52.9,35.7,0.00,SW,226,2.2,3.5,52,0.00,,,0.00,WUHU216CR1000,2014-01-19 01:39:00,
2014-01-18 17:44:00,52.9,35.7,0.00,SW,226,2.2,3.5,52,0.00,,,0.00,WUHU216CR1000,2014-01-19 01:44:00,
2014-01-18 17:49:00,50.4,35.6,0.00,SW,234,1.6,3.5,57,0.00,,,0.00,WUHU216CR1000,2014-01-19 01:49:00,
2014-01-18 17:54:00,50.4,35.6,0.00,SW,234,1.6,3.1,57,0.00,,,0.00,WUHU216CR1000,2014-01-19 01:54:00,
2014-01-18 17:59:00,50.4,35.6,0.00,SW,234,1.6,3.1,57,0.00,,,0.00,WUHU216CR1000,2014-01-19 01:59:00,
2014-01-18 18:04:00,49.0,35.9,0.00,WSW,237,1.7,3.3,60,0.00,,,0.00,WUHU216CR1000,2014-01-19 02:04:00,
2014-01-18 18:09:00,49.0,35.9,0.00,WSW,237,1.7,3.3,60,0.00,,,0.00,WUHU216CR1000,2014-01-19 02:09:00,
2014-01-18 18:14:00,49.0,35.9,0.00,WSW,237,1.7,3.3,60,0.00,,,0.00,WUHU216CR1000,2014-01-19 02:14:00,
2014-01-18 18:19:00,47.3,36.0,0.00,WSW,237,1.4,3.3,65,0.00,,,0.00,WUHU216CR1000,2014-01-19 02:19:00,
2014-01-18 18:24:00,47.3,36.0,0.00,WSW,237,1.4,2.6,65,0.00,,,0.00,WUHU216CR1000,2014-01-19 02:24:00,
2014-01-18 18:29:00,47.3,36.0,0.00,WSW,237,1.4,2.6,65,0.00,,,0.00,WUHU216CR1000,2014-01-19 02:29:00,
2014-01-18 18:34:00,45.9,35.7,0.00,WSW,238,1.2,2.6,68,0.00,,,0.00,WUHU216CR1000,2014-01-19 02:34:00,
2014-01-18 18:39:00,45.9,35.7,0.00,WSW,238,1.2,2.4,68,0.00,,,0.00,WUHU216CR1000,2014-01-19 02:39:00,
2014-01-18 18:44:00,45.9,35.7,0.00,WSW,238,1.2,2.4,68,0.00,,,0.00,WUHU216CR1000,2014-01-19 02:44:00,
2014-01-18 18:49:00,44.8,35.4,0.00,WSW,256,1.1,2.4,70,0.00,,,0.00,WUHU216CR1000,2014-01-19 02:49:00,
2014-01-18 18:54:00,44.8,35.4,0.00,WSW,256,1.1,2.4,70,0.00,,,0.00,WUHU216CR1000,2014-01-19 02:54:00,
2014-01-18 18:59:00,44.8,35.4,0.00,WSW,256,1.1,2.4,70,0.00,,,0.00,WUHU216CR1000,2014-01-19 02:59:00,
2014-01-18 19:04:00,44.0,35.4,0.00,WSW,239,1.1,2.9,72,0.00,,,0.00,WUHU216CR1000,2014-01-19 03:04:00,
2014-01-18 19:09:00,44.0,35.4,0.00,WSW,239,1.1,2.9,72,0.00,,,0.00,WUHU216CR1000,2014-01-19 03:09:00,
2014-01-18 19:14:00,44.0,35.4,0.00,WSW,239,1.1,2.9,72,0.00,,,0.00,WUHU216CR1000,2014-01-19 03:14:00,
2014-01-18 19:19:00,42.3,35.1,0.00,West,261,0.8,2.9,75,0.00,,,0.00,WUHU216CR1000,2014-01-19 03:19:00,
2014-01-18 19:24:00,42.3,35.1,0.00,West,261,0.8,2.2,75,0.00,,,0.00,WUHU216CR1000,2014-01-19 03:24:00,
2014-01-18 19:29:00,42.3,35.1,0.00,West,261,0.8,2.2,75,0.00,,,0.00,WUHU216CR1000,2014-01-19 03:29:00,
2014-01-18 19:34:00,42.4,35.3,0.00,West,277,0.6,2.2,76,0.00,,,0.00,WUHU216CR1000,2014-01-19 03:34:00,
2014-01-18 19:39:00,42.4,35.3,0.00,West,277,0.6,1.3,76,0.00,,,0.00,WUHU216CR1000,2014-01-19 03:39:00,
2014-01-18 19:44:00,42.4,35.3,0.00,West,277,0.6,1.3,76,0.00,,,0.00,WUHU216CR1000,2014-01-19 03:44:00,
2014-01-18 19:49:00,41.4,34.5,0.00,NNE,22,0.4,1.8,76,0.00,,,0.00,WUHU216CR1000,2014-01-19 03:49:00,
2014-01-18 19:54:00,41.4,34.5,0.00,NNE,22,0.4,1.8,76,0.00,,,0.00,WUHU216CR1000,2014-01-19 03:54:00,
2014-01-18 19:59:00,41.4,34.5,0.00,NNE,22,0.4,1.8,76,0.00,,,0.00,WUHU216CR1000,2014-01-19 03:59:00,
2014-01-18 20:04:00,40.7,33.9,0.00,North,6,0.2,1.8,76,0.00,,,0.00,WUHU216CR1000,2014-01-19 04:04:00,
2014-01-18 20:09:00,40.7,33.9,0.00,North,6,0.2,0.9,76,0.00,,,0.00,WUHU216CR1000,2014-01-19 04:09:00,
2014-01-18 20:14:00,40.7,33.9,0.00,North,6,0.2,0.9,76,0.00,,,0.00,WUHU216CR1000,2014-01-19 04:14:00,
2014-01-18 20:19:00,40.5,34.7,0.00,West,272,0.3,1.1,80,0.00,,,0.00,WUHU216CR1000,2014-01-19 04:19:00,
2014-01-18 20:24:00,40.5,34.7,0.00,West,272,0.3,1.1,80,0.00,,,0.00,WUHU216CR1000,2014-01-19 04:24:00,
2014-01-18 20:29:00,40.5,34.7,0.00,West,272,0.3,1.1,80,0.00,,,0.00,WUHU216CR1000,2014-01-19 04:29:00,
2014-01-18 20:34:00,39.8,34.5,0.00,SW,235,0.1,1.1,81,0.00,,,0.00,WUHU216CR1000,2014-01-19 04:34:00,
2014-01-18 20:39:00,39.8,34.5,0.00,SW,235,0.1,1.1,81,0.00,,,0.00,WUHU216CR1000,2014-01-19 04:39:00,
2014-01-18 20:44:00,39.8,34.5,0.00,SW,235,0.1,1.1,81,0.00,,,0.00,WUHU216CR1000,2014-01-19 04:44:00,
2014-01-18 20:49:00,38.5,33.9,0.00,SW,223,0.3,1.8,83,0.00,,,0.00,WUHU216CR1000,2014-01-19 04:49:00,
2014-01-18 20:54:00,38.5,33.9,0.00,SW,223,0.3,1.8,83,0.00,,,0.00,WUHU216CR1000,2014-01-19 04:54:00,
2014-01-18 20:59:00,38.5,33.9,0.00,SW,223,0.3,1.8,83,0.00,,,0.00,WUHU216CR1000,2014-01-19 04:59:00,
2014-01-18 21:01:00,38.5,33.9,0.00,SW,223,0.3,1.8,83,0.00,,,0.00,WUHU216CR1000,2014-01-19 05:01:00,
2014-01-18 21:02:00,38.5,33.9,0.00,SW,230,0.3,1.8,83,0.00,,,0.00,WUHU216CR1000,2014-01-19 05:02:00,
2014-01-18 21:07:00,38.5,33.9,0.00,SW,230,0.3,1.3,83,0.00,,,0.00,WUHU216CR1000,2014-01-19 05:07:00,
2014-01-18 21:12:00,38.5,33.9,0.00,SW,230,0.3,1.3,83,0.00,,,0.00,WUHU216CR1000,2014-01-19 05:12:00,
2014-01-18 21:17:00,38.1,33.9,0.00,SW,230,0.2,1.3,85,0.00,,,0.00,WUHU216CR1000,2014-01-19 05:17:00,
2014-01-18 21:22:00,38.1,33.9,0.00,SW,230,0.2,1.1,85,0.00,,,0.00,WUHU216CR1000,2014-01-19 05:22:00,
2014-01-18 21:27:00,38.1,33.9,0.00,SW,230,0.2,1.1,85,0.00,,,0.00,WUHU216CR1000,2014-01-19 05:27:00,
2014-01-18 21:32:00,38.1,33.7,0.00,SW,230,0.0,1.1,84,0.00,,,0.00,WUHU216CR1000,2014-01-19 05:32:00,
2014-01-18 21:37:00,38.1,33.7,0.00,SW,230,0.0,0.7,84,0.00,,,0.00,WUHU216CR1000,2014-01-19 05:37:00,
2014-01-18 21:42:00,38.1,33.7,0.00,SW,230,0.0,0.7,84,0.00,,,0.00,WUHU216CR1000,2014-01-19 05:42:00,
2014-01-18 21:47:00,37.3,33.2,0.00,North,0,0.0,0.7,85,0.00,,,0.00,WUHU216CR1000,2014-01-19 05:47:00,
2014-01-18 21:52:00,37.3,33.2,0.00,North,0,0.0,0.0,85,0.00,,,0.00,WUHU216CR1000,2014-01-19 05:52:00,
2014-01-18 21:57:00,37.3,33.2,0.00,North,0,0.0,0.0,85,0.00,,,0.00,WUHU216CR1000,2014-01-19 05:57:00,
2014-01-18 22:02:00,36.5,33.0,0.00,WNW,301,0.1,0.9,87,0.00,,,0.00,WUHU216CR1000,2014-01-19 06:02:00,
2014-01-18 22:07:00,36.5,33.0,0.00,WNW,301,0.1,0.9,87,0.00,,,0.00,WUHU216CR1000,2014-01-19 06:07:00,
2014-01-18 22:12:00,36.5,33.0,0.00,WNW,301,0.1,0.9,87,0.00,,,0.00,WUHU216CR1000,2014-01-19 06:12:00,
2014-01-18 22:17:00,36.3,33.0,0.00,NW,305,0.0,0.9,88,0.00,,,0.00,WUHU216CR1000,2014-01-19 06:17:00,
2014-01-18 22:22:00,36.3,33.0,0.00,NW,305,0.0,0.7,88,0.00,,,0.00,WUHU216CR1000,2014-01-19 06:22:00,
2014-01-18 22:27:00,36.3,33.0,0.00,NW,305,0.0,0.7,88,0.00,,,0.00,WUHU216CR1000,2014-01-19 06:27:00,
2014-01-18 22:32:00,35.8,32.5,0.00,North,0,0.0,0.7,88,0.00,,,0.00,WUHU216CR1000,2014-01-19 06:32:00,
2014-01-18 22:37:00,35.8,32.5,0.00,North,0,0.0,0.0,88,0.00,,,0.00,WUHU216CR1000,2014-01-19 06:37:00,
2014-01-18 22:42:00,35.8,32.5,0.00,North,0,0.0,0.0,88,0.00,,,0.00,WUHU216CR1000,2014-01-19 06:42:00,
2014-01-18 22:47:00,35.4,33.1,0.00,SW,218,0.3,1.3,91,0.00,,,0.00,WUHU216CR1000,2014-01-19 06:47:00,
2014-01-18 22:52:00,35.4,33.1,0.00,SW,218,0.3,1.3,91,0.00,,,0.00,WUHU216CR1000,2014-01-19 06:52:00,
2014-01-18 22:57:00,35.4,33.1,0.00,SW,218,0.3,1.3,91,0.00,,,0.00,WUHU216CR1000,2014-01-19 06:57:00,
2014-01-18 23:02:00,35.1,32.8,0.00,NNE,16,0.1,1.3,91,0.00,,,0.00,WUHU216CR1000,2014-01-19 07:02:00,
2014-01-18 23:07:00,35.1,32.8,0.00,NNE,16,0.1,1.1,91,0.00,,,0.00,WUHU216CR1000,2014-01-19 07:07:00,
2014-01-18 23:12:00,35.1,32.8,0.00,NNE,16,0.1,1.1,91,0.00,,,0.00,WUHU216CR1000,2014-01-19 07:12:00,
2014-01-18 23:17:00,34.5,32.2,0.00,NNE,12,0.1,1.1,91,0.00,,,0.00,WUHU216CR1000,2014-01-19 07:17:00,
2014-01-18 23:22:00,34.5,32.2,0.00,NNE,12,0.1,1.1,91,0.00,,,0.00,WUHU216CR1000,2014-01-19 07:22:00,
2014-01-18 23:27:00,34.5,32.2,0.00,NNE,12,0.1,1.1,91,0.00,,,0.00,WUHU216CR1000,2014-01-19 07:27:00,
2014-01-18 23:32:00,34.6,32.9,0.00,WSW,257,0.1,1.1,94,0.00,,,0.00,WUHU216CR1000,2014-01-19 07:32:00,
2014-01-18 23:37:00,34.6,32.9,0.00,WSW,257,0.1,0.7,94,0.00,,,0.00,WUHU216CR1000,2014-01-19 07:37:00,
2014-01-18 23:42:00,34.6,32.9,0.00,WSW,257,0.1,0.7,94,0.00,,,0.00,WUHU216CR1000,2014-01-19 07:42:00,
2014-01-18 23:47:00,34.1,32.5,0.00,SW,227,0.1,1.1,94,0.00,,,0.00,WUHU216CR1000,2014-01-19 07:47:00,
2014-01-18 23:52:00,34.1,32.5,0.00,SW,227,0.1,1.1,94,0.00,,,0.00,WUHU216CR1000,2014-01-19 07:52:00,
2014-01-18 23:57:00,34.1,32.5,0.00,SW,227,0.1,1.1,94,0.00,,,0.00,WUHU216CR1000,2014-01-19 07:57:00,